Terminal Aerodrome Forecast
Issued by NWS

Home | Current Version | Previous Version | Graphics & Text | Print | Product List | Glossary On
Versions: 1 2 3 4 5 6 7 8 9 10 11 12 13 14 15 16 17 18 19 20 21 22 23 24 25 26 27 28 29 30 31 32 33 34 35 36 37 38 39 40 41 42
000
FTUS43 KGRB 281100 AAA
TAFRHI
TAF AMD
KRHI 281101Z 2811/2906 VRB03KT 4SM BR SCT004 SCT010
      TEMPO 2811/2815 3SM BR BKN004 BKN010
     FM281600 15007KT P6SM SCT015 SCT200
     FM282100 14007KT P6SM OVC070
     FM290300 12007KT 4SM -SHRA BR OVC025=

USA.gov is the U.S. government's official web portal to all federal, state and local government web resources and services.